Time;durP1;ratioP1;P1;durP2;ratioP2;P2;SDS_P1;SDS_P2;PMS_P1;PMS_P2;Temp;Humidity;BMP_temperature;BMP_pressure;BME280_temperature;BME280_humidity;BME280_pressure;Samples;Min_cycle;Max_cycle;Signal;HPM_P1;HPM_P2
2022/08/27 00:01:15;;;;;;;6.72;2.22;;;15.50;99.90;;;;;;5095699;28;20050;-76
2022/08/27 00:03:42;;;;;;;4.65;1.70;;;15.70;99.90;;;;;;5113686;28;20039;-76
2022/08/27 00:06:10;;;;;;;7.22;2.00;;;15.90;99.90;;;;;;5113313;28;20474;-75
2022/08/27 00:08:36;;;;;;;5.68;1.70;;;15.90;99.90;;;;;;5113572;28;20082;-75
2022/08/27 00:11:02;;;;;;;12.70;1.92;;;15.70;99.90;;;;;;5113493;28;20079;-75
2022/08/27 00:13:27;;;;;;;;;;;15.60;99.90;;;;;;5113730;28;20539;-75
2022/08/27 00:15:53;;;;;;;6.40;1.77;;;15.60;99.90;;;;;;5112758;28;19926;-75
2022/08/27 00:18:19;;;;;;;;;;;15.80;99.90;;;;;;5078975;28;20051;-74
2022/08/27 00:20:45;;;;;;;4.05;1.77;;;15.90;99.90;;;;;;5113044;28;19924;-75
2022/08/27 00:23:11;;;;;;;;;;;15.70;99.90;;;;;;5113713;28;20058;-75
2022/08/27 00:25:37;;;;;;;4.55;1.88;;;16.10;99.90;;;;;;5113161;28;19964;-74
2022/08/27 00:28:03;;;;;;;5.78;2.20;;;15.80;99.90;;;;;;5113151;28;20048;-75
2022/08/27 00:30:29;;;;;;;5.60;2.00;;;15.60;99.90;;;;;;5113120;28;20066;-77
2022/08/27 00:32:55;;;;;;;;;;;15.40;99.90;;;;;;5113433;28;20051;-77
2022/08/27 00:35:21;;;;;;;6.43;2.00;;;15.40;99.90;;;;;;5112827;28;20014;-77
2022/08/27 00:37:47;;;;;;;6.78;2.00;;;15.70;99.90;;;;;;5112975;28;20518;-75
2022/08/27 00:40:15;;;;;;;;;;;15.40;99.90;;;;;;5113669;28;20048;-76
2022/08/27 00:42:41;;;;;;;4.95;1.90;;;15.60;99.90;;;;;;5112912;28;20004;-75
2022/08/27 00:45:08;;;;;;;6.75;2.08;;;15.50;99.90;;;;;;5112846;28;20051;-76
2022/08/27 00:47:40;;;;;;;9.80;2.40;;;15.40;99.90;;;;;;5112920;28;20044;-76
2022/08/27 00:50:11;;;;;;;7.15;2.28;;;15.70;99.90;;;;;;5112599;28;20445;-76
2022/08/27 00:52:59;;;;;;;4.28;1.88;;;15.50;99.90;;;;;;5112724;28;20113;-76
2022/08/27 00:55:30;;;;;;;5.03;2.10;;;15.60;99.90;;;;;;5112780;28;20058;-76
2022/08/27 00:58:09;;;;;;;10.75;2.25;;;15.40;99.90;;;;;;5112796;28;20152;-76
2022/08/27 01:00:36;;;;;;;4.93;1.83;;;15.40;99.90;;;;;;5112779;28;20150;-75
2022/08/27 01:03:02;;;;;;;4.75;2.33;;;15.20;99.90;;;;;;5112334;28;20040;-75
2022/08/27 01:05:29;;;;;;;5.65;2.05;;;15.50;99.90;;;;;;5112629;28;20101;-76
2022/08/27 01:08:02;;;;;;;3.80;2.45;;;15.20;99.90;;;;;;5112655;28;20571;-76
2022/08/27 01:10:29;;;;;;;5.63;2.17;;;15.00;99.90;;;;;;5112628;28;20048;-77
2022/08/27 01:12:56;;;;;;;5.60;2.25;;;15.20;99.90;;;;;;5112210;28;20565;-76
2022/08/27 01:15:24;;;;;;;9.02;1.95;;;14.80;99.90;;;;;;5112505;28;20505;-76
2022/08/27 01:17:50;;;;;;;8.43;1.98;;;14.90;99.90;;;;;;5112021;28;20202;-76
2022/08/27 01:20:29;;;;;;;3.88;1.90;;;14.90;99.90;;;;;;5112518;28;20060;-76
2022/08/27 01:23:08;;;;;;;6.13;2.47;;;14.80;99.90;;;;;;5112510;28;20044;-76
2022/08/27 01:25:34;;;;;;;5.63;2.10;;;14.90;99.90;;;;;;5112527;28;20134;-77
2022/08/27 01:28:01;;;;;;;;;;;15.10;99.90;;;;;;5113712;28;20058;-77
2022/08/27 01:30:28;;;;;;;4.43;1.70;;;14.70;99.90;;;;;;5116547;28;20343;-77
2022/08/27 01:32:54;;;;;;;3.88;1.83;;;14.70;99.90;;;;;;5116261;28;20039;-77
2022/08/27 01:35:22;;;;;;;6.78;1.88;;;14.90;99.90;;;;;;5116484;28;20108;-77
2022/08/27 01:37:50;;;;;;;7.10;2.30;;;15.10;99.90;;;;;;5116577;28;20051;-77
2022/08/27 01:40:18;;;;;;;3.75;1.92;;;14.90;99.90;;;;;;5116510;28;20051;-77
2022/08/27 01:42:46;;;;;;;7.05;2.30;;;14.70;99.90;;;;;;5116375;28;20051;-76
2022/08/27 01:45:23;;;;;;;2.92;1.67;;;15.20;99.90;;;;;;5116382;28;20079;-77
2022/08/27 01:47:49;;;;;;;5.18;2.22;;;15.30;99.90;;;;;;5116173;28;20048;-76
2022/08/27 01:50:26;;;;;;;;;;;15.20;99.90;;;;;;5116765;28;20299;-78
2022/08/27 01:52:53;;;;;;;3.60;1.67;;;15.80;99.90;;;;;;5116369;28;19927;-76
2022/08/27 01:55:24;;;;;;;5.22;1.85;;;15.30;99.90;;;;;;5116554;28;20408;-77
2022/08/27 01:57:50;;;;;;;3.25;1.63;;;15.30;99.90;;;;;;5098321;28;20043;-75
2022/08/27 02:00:23;;;;;;;6.90;1.92;;;15.70;99.90;;;;;;5116058;28;20134;-76
2022/08/27 02:02:49;;;;;;;6.55;2.83;;;15.40;99.90;;;;;;5115886;28;20373;-76
2022/08/27 02:05:15;;;;;;;3.70;1.90;;;15.30;99.90;;;;;;5116026;28;20067;-76
2022/08/27 02:07:42;;;;;;;5.65;1.85;;;15.60;99.90;;;;;;5115966;28;20491;-76
2022/08/27 02:10:09;;;;;;;;;;;15.70;99.90;;;;;;5116290;28;20536;-76
2022/08/27 02:12:34;;;;;;;;;;;15.90;99.90;;;;;;5098042;28;19963;-77
2022/08/27 02:15:00;;;;;;;6.18;1.73;;;15.60;99.90;;;;;;5115806;28;20538;-77
2022/08/27 02:17:26;;;;;;;;;;;15.70;99.90;;;;;;5115750;28;20039;-77
2022/08/27 02:19:52;;;;;;;8.50;2.38;;;15.90;99.90;;;;;;5115647;28;19923;-76
2022/08/27 02:22:18;;;;;;;7.18;1.80;;;15.70;99.90;;;;;;5115607;28;20083;-76
2022/08/27 02:24:43;;;;;;;5.97;2.08;;;15.70;99.90;;;;;;5115564;28;20106;-78
2022/08/27 02:27:09;;;;;;;;;;;15.80;99.90;;;;;;5115956;28;20085;-78
2022/08/27 02:29:35;;;;;;;6.07;2.00;;;16.40;99.90;;;;;;5115316;28;19919;-80
2022/08/27 02:32:00;;;;;;;;;;;16.00;99.90;;;;;;5115902;28;20487;-78
2022/08/27 02:34:27;;;;;;;7.78;1.92;;;15.70;99.90;;;;;;5097188;28;19927;-77
2022/08/27 02:36:53;;;;;;;9.82;2.05;;;15.80;99.90;;;;;;5096992;28;20395;-76
2022/08/27 02:39:20;;;;;;;6.85;1.88;;;16.00;99.90;;;;;;5115080;28;20612;-77
2022/08/27 02:41:47;;;;;;;6.43;1.90;;;16.00;99.90;;;;;;5115211;28;20137;-76
2022/08/27 02:44:13;;;;;;;8.52;2.15;;;15.90;99.90;;;;;;5115127;28;20399;-76
2022/08/27 02:46:40;;;;;;;7.07;1.80;;;16.10;99.90;;;;;;5115146;28;20043;-76
2022/08/27 02:49:08;;;;;;;3.83;1.95;;;16.00;99.90;;;;;;5115111;28;20055;-76
2022/08/27 02:51:34;;;;;;;7.38;2.05;;;15.90;99.90;;;;;;5097150;28;20052;-77
2022/08/27 02:54:00;;;;;;;;;;;16.00;99.90;;;;;;5115311;28;20510;-76
2022/08/27 02:56:26;;;;;;;5.97;1.48;;;16.00;99.90;;;;;;5114936;28;20104;-75
2022/08/27 02:58:52;;;;;;;10.57;2.42;;;16.40;99.90;;;;;;5096576;28;20047;-76
2022/08/27 03:01:18;;;;;;;;;;;16.20;99.90;;;;;;5080437;28;20056;-75
2022/08/27 03:03:44;;;;;;;7.13;2.00;;;16.00;99.90;;;;;;5114771;28;20374;-76
2022/08/27 03:06:09;;;;;;;;;;;16.20;99.90;;;;;;5115188;28;20511;-77
2022/08/27 03:08:35;;;;;;;6.43;2.22;;;16.10;99.90;;;;;;5114752;28;19924;-77
2022/08/27 03:11:00;;;;;;;;;;;16.00;99.90;;;;;;5097121;28;20797;-76
2022/08/27 03:13:26;;;;;;;5.30;1.83;;;15.80;99.90;;;;;;5114640;28;19924;-78
2022/08/27 03:15:52;;;;;;;;;;;15.90;99.90;;;;;;5096804;28;20051;-76
2022/08/27 03:18:18;;;;;;;6.75;2.28;;;15.70;99.90;;;;;;5114472;28;19923;-78
2022/08/27 03:20:55;;;;;;;9.43;2.10;;;15.60;99.90;;;;;;5114487;28;20052;-78
2022/08/27 03:23:24;;;;;;;3.65;1.70;;;15.80;99.90;;;;;;5114206;28;20380;-76
2022/08/27 03:25:53;;;;;;;6.05;1.88;;;15.50;99.90;;;;;;5114336;28;20043;-76
2022/08/27 03:28:22;;;;;;;10.15;2.30;;;15.70;99.90;;;;;;5113784;28;20478;-77
2022/08/27 03:30:57;;;;;;;10.15;2.50;;;15.30;99.90;;;;;;5113884;28;20117;-77
2022/08/27 03:33:23;;;;;;;4.80;2.05;;;15.70;99.90;;;;;;5114109;28;20086;-77
2022/08/27 03:35:49;;;;;;;5.97;2.58;;;15.70;99.90;;;;;;5114331;28;20055;-77
2022/08/27 03:38:15;;;;;;;6.43;2.13;;;15.40;99.90;;;;;;5114139;28;20064;-76
2022/08/27 03:40:42;;;;;;;7.95;2.15;;;15.60;99.90;;;;;;5114061;28;20162;-77
2022/08/27 03:43:09;;;;;;;6.95;2.45;;;15.50;99.90;;;;;;5113888;28;20070;-77
2022/08/27 03:45:34;;;;;;;6.07;2.20;;;15.60;99.90;;;;;;5114091;28;20052;-77
2022/08/27 03:48:00;;;;;;;6.38;2.67;;;15.80;99.90;;;;;;5096325;28;20052;-76
2022/08/27 03:50:26;;;;;;;;;;;16.00;99.90;;;;;;5113831;28;20495;-76
2022/08/27 03:52:51;;;;;;;9.25;2.00;;;15.70;99.90;;;;;;5113813;28;19930;-77
2022/08/27 03:55:17;;;;;;;;;;;15.30;99.90;;;;;;5114318;28;20047;-77
2022/08/27 03:57:43;;;;;;;6.93;1.98;;;15.80;99.90;;;;;;5113825;28;19920;-75
2022/08/27 04:00:10;;;;;;;;;;;15.70;99.90;;;;;;5096243;28;20047;-77
2022/08/27 04:02:36;;;;;;;7.80;2.47;;;15.70;99.90;;;;;;5113711;28;19919;-76
2022/08/27 04:05:03;;;;;;;;;;;15.70;99.90;;;;;;5114095;28;20089;-76
2022/08/27 04:07:28;;;;;;;4.60;2.60;;;15.50;99.90;;;;;;5113649;28;19946;-77
2022/08/27 04:09:54;;;;;;;;;;;15.50;99.90;;;;;;5113992;28;20472;-76
2022/08/27 04:12:19;;;;;;;11.10;2.40;;;15.80;99.90;;;;;;5113116;28;19985;-75
2022/08/27 04:14:45;;;;;;;;;;;15.50;99.90;;;;;;5113867;28;20055;-76
2022/08/27 04:17:11;;;;;;;6.15;2.25;;;15.60;99.90;;;;;;5113380;28;19927;-76
2022/08/27 04:19:36;;;;;;;;;;;15.80;99.90;;;;;;5113802;28;20522;-76
2022/08/27 04:22:04;;;;;;;7.32;2.60;;;15.60;99.90;;;;;;5113302;28;19978;-77
2022/08/27 04:24:32;;;;;;;7.80;2.80;;;15.90;99.90;;;;;;5113227;28;20043;-78
2022/08/27 04:26:59;;;;;;;6.85;2.47;;;15.80;99.90;;;;;;5112625;28;20500;-77
2022/08/27 04:29:25;;;;;;;6.18;2.72;;;15.90;99.90;;;;;;5112561;28;20126;-77
2022/08/27 04:31:50;;;;;;;;;;;15.80;99.90;;;;;;5113514;28;20139;-77
2022/08/27 04:34:16;;;;;;;8.60;2.70;;;15.90;99.90;;;;;;5113100;28;19919;-74
2022/08/27 04:36:42;;;;;;;7.78;2.67;;;16.10;99.90;;;;;;5077936;28;20510;-77
2022/08/27 04:39:07;;;;;;;;;;;15.70;99.90;;;;;;5095215;28;20047;-76
2022/08/27 04:41:33;;;;;;;6.15;2.40;;;15.80;99.90;;;;;;5112693;28;20254;-75
2022/08/27 04:44:02;;;;;;;;;;;16.10;99.90;;;;;;5113313;28;20457;-73
2022/08/27 04:46:31;;;;;;;8.23;2.28;;;16.50;99.90;;;;;;5094885;28;19923;-75
2022/08/27 04:49:00;;;;;;;6.43;1.83;;;16.70;99.90;;;;;;5094604;28;20150;-78
2022/08/27 04:51:27;;;;;;;5.13;2.20;;;16.50;99.90;;;;;;5112475;28;20078;-75
2022/08/27 04:53:54;;;;;;;4.45;1.73;;;16.30;99.90;;;;;;5112660;28;20126;-77
2022/08/27 04:56:21;;;;;;;5.97;1.90;;;17.60;99.90;;;;;;5112461;28;20044;-76
2022/08/27 04:58:49;;;;;;;8.02;1.80;;;16.80;99.90;;;;;;5112750;28;20142;-77
2022/08/27 05:01:36;;;;;;;7.80;2.08;;;16.70;99.90;;;;;;5094389;28;20130;-77
2022/08/27 05:04:02;;;;;;;7.25;1.73;;;16.90;99.90;;;;;;5111679;28;20090;-75
2022/08/27 05:06:28;;;;;;;8.15;2.38;;;16.50;99.90;;;;;;5112589;28;20043;-76
2022/08/27 05:08:54;;;;;;;;;;;16.80;99.90;;;;;;5112938;28;20083;-76
2022/08/27 05:11:22;;;;;;;5.57;1.60;;;16.80;99.90;;;;;;5112243;28;19924;-76
2022/08/27 05:13:48;;;;;;;7.65;2.00;;;16.80;99.90;;;;;;5094201;28;20098;-77
2022/08/27 05:16:20;;;;;;;7.25;1.98;;;16.80;99.90;;;;;;5112128;28;20511;-78
2022/08/27 05:18:47;;;;;;;6.40;1.70;;;16.90;99.90;;;;;;5094262;28;20415;-79
2022/08/27 05:21:21;;;;;;;4.72;1.65;;;16.70;99.90;;;;;;5112519;28;20063;-77
2022/08/27 05:23:47;;;;;;;5.82;2.17;;;16.70;99.90;;;;;;5112241;28;20048;-76
2022/08/27 05:26:13;;;;;;;;;;;16.90;99.90;;;;;;5112894;28;20051;-77
2022/08/27 05:28:39;;;;;;;12.05;1.80;;;17.00;99.90;;;;;;5112481;28;20000;-77
2022/08/27 05:31:06;;;;;;;;;;;16.90;99.90;;;;;;5112843;28;20101;-77
2022/08/27 05:33:32;;;;;;;6.82;2.13;;;16.80;99.90;;;;;;5094031;28;20348;-76
2022/08/27 05:35:59;;;;;;;7.35;2.00;;;17.00;99.90;;;;;;5112412;28;20086;-76
2022/08/27 05:38:27;;;;;;;5.13;1.77;;;17.10;99.90;;;;;;5112110;28;20048;-78
2022/08/27 05:41:08;;;;;;;7.25;2.83;;;17.00;99.90;;;;;;5112787;28;20082;-78
2022/08/27 05:43:36;;;;;;;6.45;2.28;;;17.00;99.90;;;;;;5112626;28;20096;-76
2022/08/27 05:46:05;;;;;;;6.80;2.08;;;16.80;99.90;;;;;;5112305;28;20183;-75
2022/08/27 05:48:32;;;;;;;10.13;2.67;;;17.10;99.90;;;;;;5112310;28;20092;-75
2022/08/27 05:51:16;;;;;;;8.85;2.10;;;17.00;99.90;;;;;;5094261;28;20480;-75
2022/08/27 05:53:42;;;;;;;7.93;2.00;;;17.20;99.90;;;;;;5111946;28;20036;-79
2022/08/27 05:56:20;;;;;;;11.55;2.40;;;17.20;99.90;;;;;;5112310;28;20048;-79
2022/08/27 06:01:35;;;;;;;8.30;1.80;;;17.50;99.90;;;;;;5112184;28;20097;-77
2022/08/27 06:04:02;;;;;;;9.95;1.80;;;17.40;99.90;;;;;;5112026;28;20476;-77
2022/08/27 06:06:27;;;;;;;9.23;2.50;;;17.30;99.90;;;;;;5112168;28;20054;-79
2022/08/27 06:08:54;;;;;;;11.80;2.63;;;17.30;99.90;;;;;;5093585;28;20051;-78
2022/08/27 06:11:20;;;;;;;4.85;1.58;;;17.50;99.90;;;;;;5112113;28;20438;-78
2022/08/27 06:13:46;;;;;;;9.38;2.00;;;17.20;99.90;;;;;;5112438;28;20043;-77
2022/08/27 06:16:17;;;;;;;6.50;1.80;;;17.50;99.90;;;;;;5115774;28;20097;-76
2022/08/27 06:18:45;;;;;;;10.88;2.42;;;17.50;99.90;;;;;;5115531;28;20471;-75
2022/08/27 06:21:12;;;;;;;6.72;1.70;;;17.60;99.90;;;;;;5097489;28;20055;-78
2022/08/27 06:23:38;;;;;;;9.35;2.10;;;17.60;99.90;;;;;;5115336;28;20065;-77
2022/08/27 06:26:07;;;;;;;6.32;1.73;;;17.70;99.90;;;;;;5115576;28;20554;-76
2022/08/27 06:28:34;;;;;;;7.30;1.83;;;17.70;99.90;;;;;;5115593;28;20040;-76
2022/08/27 06:31:05;;;;;;;9.95;2.33;;;18.10;99.90;;;;;;5115469;28;20146;-76
2022/08/27 06:33:31;;;;;;;10.00;2.17;;;17.80;99.90;;;;;;5115351;28;20417;-76
2022/08/27 06:35:57;;;;;;;;;;;17.70;99.90;;;;;;5097868;28;20052;-74
2022/08/27 06:38:23;;;;;;;7.38;1.90;;;17.80;99.90;;;;;;5115158;28;19967;-79
2022/08/27 06:40:49;;;;;;;;;;;17.60;99.90;;;;;;5115704;28;20085;-76
2022/08/27 06:43:14;;;;;;;7.22;1.60;;;17.90;99.90;;;;;;5096950;28;19919;-76
2022/08/27 06:45:40;;;;;;;;;;;17.60;99.90;;;;;;5115687;28;20047;-78
2022/08/27 06:48:05;;;;;;;7.55;1.77;;;18.00;99.90;;;;;;5115152;28;20010;-77
2022/08/27 06:50:35;;;;;;;;;;;18.10;99.90;;;;;;5115584;28;20479;-76
2022/08/27 06:53:01;;;;;;;5.88;1.58;;;17.90;99.90;;;;;;5114992;28;19927;-74
2022/08/27 06:55:27;;;;;;;12.95;1.90;;;17.90;99.90;;;;;;5115086;28;20048;-78
2022/08/27 06:57:52;;;;;;;;;;;18.30;99.90;;;;;;5097234;28;20044;-76
2022/08/27 07:00:18;;;;;;;7.15;1.80;;;18.40;99.90;;;;;;5114625;28;19928;-77
2022/08/27 07:02:43;;;;;;;;;;;18.10;99.90;;;;;;5115260;28;20082;-76
2022/08/27 07:05:10;;;;;;;7.22;1.42;;;18.20;99.90;;;;;;5114851;28;20018;-75
2022/08/27 07:07:36;;;;;;;9.10;1.75;;;18.30;99.90;;;;;;5114591;28;20443;-74
2022/08/27 07:10:03;;;;;;;9.35;1.77;;;19.10;99.90;;;;;;5114634;28;20126;-72
2022/08/27 07:12:28;;;;;;;13.02;1.80;;;18.90;99.90;;;;;;5114581;28;20043;-76
2022/08/27 07:14:54;;;;;;;10.60;1.88;;;19.30;99.90;;;;;;5114685;28;20059;-74
2022/08/27 07:17:19;;;;;;;;;;;19.40;99.90;;;;;;5096983;28;20059;-76
2022/08/27 07:19:45;;;;;;;3.80;1.40;;;19.40;99.90;;;;;;5114322;28;19919;-76
2022/08/27 07:22:11;;;;;;;5.30;1.40;;;19.00;99.90;;;;;;5096540;28;20055;-76
2022/08/27 07:24:38;;;;;;;9.68;1.90;;;19.10;99.90;;;;;;5114533;28;20044;-80
2022/08/27 07:27:04;;;;;;;6.43;1.42;;;19.50;99.90;;;;;;5113457;28;20054;-75
2022/08/27 07:29:31;;;;;;;6.00;1.58;;;19.60;99.90;;;;;;5114253;28;20155;-78
2022/08/27 07:31:56;;;;;;;6.63;1.90;;;19.40;99.90;;;;;;5114432;28;20047;-76
2022/08/27 07:34:22;;;;;;;9.75;2.00;;;19.30;99.90;;;;;;5113923;28;20040;-76
2022/08/27 07:36:50;;;;;;;6.20;1.55;;;19.30;99.90;;;;;;5096221;28;20126;-74
2022/08/27 07:39:16;;;;;;;4.95;1.73;;;18.90;99.90;;;;;;5096312;28;20087;-75
2022/08/27 07:44:26;;;;;;;8.73;1.40;;;19.10;99.90;;;;;;5114094;28;20134;-77
2022/08/27 07:46:54;;;;;;;7.72;1.80;;;19.50;99.90;;;;;;5095994;28;20130;-73
2022/08/27 07:49:21;;;;;;;6.50;1.60;;;19.30;99.90;;;;;;5113642;28;20188;-75
2022/08/27 07:51:47;;;;;;;5.60;1.75;;;19.60;99.90;;;;;;5113848;28;20044;-81
2022/08/27 07:54:14;;;;;;;6.45;1.52;;;19.60;99.90;;;;;;5113806;28;20039;-76
2022/08/27 07:56:40;;;;;;;4.97;1.60;;;19.70;99.90;;;;;;5095565;28;20051;-75
2022/08/27 07:59:07;;;;;;;7.72;1.70;;;19.70;99.90;;;;;;5113879;28;20051;-77
2022/08/27 08:01:33;;;;;;;10.88;2.13;;;19.90;99.90;;;;;;5113842;28;20051;-77
2022/08/27 08:03:58;;;;;;;8.65;1.90;;;19.70;99.90;;;;;;5113400;28;20119;-76
2022/08/27 08:06:24;;;;;;;12.05;1.63;;;19.40;99.90;;;;;;5113586;28;20050;-77
2022/08/27 08:08:50;;;;;;;5.03;1.63;;;19.40;99.90;;;;;;5095465;28;20139;-74
2022/08/27 08:11:17;;;;;;;6.40;1.88;;;19.20;99.90;;;;;;5113459;28;20051;-75
2022/08/27 08:13:44;;;;;;;8.25;1.55;;;19.00;99.90;;;;;;5113439;28;20089;-76
2022/08/27 08:16:09;;;;;;;7.53;2.40;;;19.50;99.90;;;;;;5113149;28;20447;-74
2022/08/27 08:18:35;;;;;;;5.15;1.48;;;19.20;99.90;;;;;;5113078;28;20056;-74
2022/08/27 08:21:08;;;;;;;7.00;1.65;;;19.40;99.90;;;;;;5113275;28;20083;-75
2022/08/27 08:23:34;;;;;;;5.40;1.33;;;19.10;99.90;;;;;;5113279;28;20039;-75
2022/08/27 08:26:01;;;;;;;8.30;1.65;;;19.30;99.90;;;;;;5113192;28;20058;-73
2022/08/27 08:28:28;;;;;;;6.82;1.65;;;19.10;99.90;;;;;;5095218;28;20048;-77
2022/08/27 08:30:54;;;;;;;6.55;2.15;;;19.00;99.90;;;;;;5113028;28;20063;-74
2022/08/27 08:33:21;;;;;;;8.60;2.05;;;19.60;99.90;;;;;;5112730;28;20058;-80
2022/08/27 08:35:50;;;;;;;6.80;1.38;;;20.00;99.90;;;;;;5094900;28;20396;-76
2022/08/27 08:38:17;;;;;;;7.45;1.63;;;20.10;99.90;;;;;;5112766;28;20047;-75
2022/08/27 08:40:48;;;;;;;5.82;1.48;;;20.40;99.90;;;;;;5112965;28;20092;-71
2022/08/27 08:43:52;;;;;;;8.88;1.95;;;20.60;99.90;;;;;;5113015;28;20484;-73
2022/08/27 08:46:31;;;;;;;5.53;1.40;;;21.30;99.90;;;;;;5056315;28;20055;-73
2022/08/27 08:49:04;;;;;;;7.18;1.50;;;21.00;99.90;;;;;;5112688;28;20398;-75
2022/08/27 08:51:38;;;;;;;8.55;1.50;;;21.10;99.90;;;;;;5112865;28;20122;-75
2022/08/27 08:54:14;;;;;;;7.32;1.48;;;20.90;99.90;;;;;;5112758;28;20054;-76
2022/08/27 08:57:09;;;;;;;5.60;1.48;;;21.30;99.90;;;;;;5112836;28;20059;-76
2022/08/27 08:59:38;;;;;;;10.98;2.00;;;21.30;99.90;;;;;;5112787;28;20050;-75
2022/08/27 09:02:10;;;;;;;9.13;1.50;;;20.90;99.90;;;;;;5112353;28;20047;-76
2022/08/27 09:04:36;;;;;;;8.80;1.52;;;21.20;99.90;;;;;;5094679;28;20045;-74
2022/08/27 09:07:08;;;;;;;7.47;1.85;;;21.10;99.90;;;;;;5112671;28;20043;-77
2022/08/27 09:09:39;;;;;;;4.28;1.35;;;21.70;99.90;;;;;;5112751;28;20138;-79
2022/08/27 09:12:08;;;;;;;4.35;1.30;;;21.60;99.90;;;;;;5112585;28;20067;-77
2022/08/27 09:14:52;;;;;;;12.20;1.98;;;22.00;99.90;;;;;;5112566;28;20104;-75
2022/08/27 09:17:18;;;;;;;5.88;1.40;;;21.80;99.90;;;;;;5112360;28;20046;-75
2022/08/27 09:19:44;;;;;;;5.65;1.42;;;21.90;99.90;;;;;;5112554;28;20464;-76
2022/08/27 09:22:41;;;;;;;5.80;1.27;;;22.10;99.90;;;;;;5094564;28;20074;-75
2022/08/27 09:25:21;;;;;;;6.68;1.52;;;22.10;99.90;;;;;;5094710;28;20093;-75
2022/08/27 09:27:48;;;;;;;3.45;1.17;;;22.10;99.90;;;;;;5112823;28;20150;-71
2022/08/27 09:30:20;;;;;;;5.40;1.58;;;21.60;99.90;;;;;;5111817;28;20052;-77
2022/08/27 09:33:00;;;;;;;8.63;1.75;;;21.60;99.90;;;;;;5112248;28;20621;-69
2022/08/27 09:35:37;;;;;;;6.72;1.40;;;21.80;99.90;;;;;;5112496;28;20076;-72
2022/08/27 09:38:03;;;;;;;6.22;1.35;;;22.00;99.90;;;;;;5112369;28;20130;-70
2022/08/27 09:40:39;;;;;;;4.78;1.10;;;21.80;99.90;;;;;;5111955;28;20119;-76
2022/08/27 09:43:14;;;;;;;10.88;2.10;;;22.10;99.90;;;;;;5112315;28;20464;-70
2022/08/27 09:45:47;;;;;;;6.82;1.55;;;22.30;99.90;;;;;;5112062;28;20047;-76
2022/08/27 09:48:24;;;;;;;9.13;1.90;;;22.10;99.90;;;;;;5094047;28;20429;-73
2022/08/27 09:50:53;;;;;;;13.80;2.15;;;21.90;99.90;;;;;;5116155;28;20146;-71
2022/08/27 09:53:20;;;;;;;7.03;1.65;;;21.50;99.90;;;;;;5116213;28;20388;-76
2022/08/27 09:55:57;;;;;;;5.38;1.63;;;21.10;99.90;;;;;;5116186;28;20043;-73
2022/08/27 09:58:33;;;;;;;9.95;1.50;;;20.90;99.90;;;;;;5116294;28;20143;-79
2022/08/27 10:01:23;;;;;;;7.20;1.40;;;20.80;99.90;;;;;;5115806;28;20424;-74
2022/08/27 10:03:49;;;;;;;6.88;1.38;;;20.80;99.90;;;;;;5116053;28;20096;-73
2022/08/27 10:06:29;;;;;;;5.95;1.15;;;21.10;99.90;;;;;;5115945;28;20104;-76
2022/08/27 10:09:04;;;;;;;5.25;1.10;;;20.90;99.90;;;;;;5115995;28;20059;-75
2022/08/27 10:12:05;;;;;;;5.70;1.13;;;20.90;99.90;;;;;;5115871;28;20052;-72
2022/08/27 10:14:38;;;;;;;6.55;1.40;;;20.90;99.90;;;;;;5059021;28;20055;-75
2022/08/27 10:17:18;;;;;;;5.53;1.20;;;21.20;99.90;;;;;;5115770;28;20093;-77
2022/08/27 10:20:03;;;;;;;7.03;1.83;;;21.60;99.90;;;;;;5115806;28;20059;-76
2022/08/27 10:22:40;;;;;;;10.85;1.40;;;21.70;99.90;;;;;;5115644;28;20039;-74
2022/08/27 10:25:08;;;;;;;8.38;1.67;;;21.90;99.90;;;;;;5115682;28;20055;-72
2022/08/27 10:27:52;;;;;;;5.80;1.42;;;21.80;99.90;;;;;;5115565;28;20044;-70
2022/08/27 10:30:24;;;;;;;8.00;1.73;;;22.30;99.90;;;;;;5114987;28;20525;-77
2022/08/27 10:33:08;;;;;;;4.85;1.17;;;22.30;99.90;;;;;;5115444;28;20052;-72
2022/08/27 10:35:49;;;;;;;12.10;2.05;;;22.20;99.90;;;;;;5115456;28;20052;-75
2022/08/27 10:38:22;;;;;;;4.13;1.23;;;21.90;99.90;;;;;;5115356;28;20047;-73
2022/08/27 10:41:02;;;;;;;5.93;1.30;;;21.40;99.90;;;;;;5115478;28;20047;-74
2022/08/27 10:43:43;;;;;;;7.85;1.33;;;22.20;99.90;;;;;;5115024;28;20088;-75
2022/08/27 10:46:24;;;;;;;10.00;1.65;;;21.50;99.90;;;;;;5115316;28;20104;-73
2022/08/27 10:49:18;;;;;;;5.70;1.40;;;21.80;99.90;;;;;;5114845;28;20492;-73
2022/08/27 10:51:52;;;;;;;10.82;1.58;;;21.30;99.90;;;;;;5096844;28;20451;-76
2022/08/27 10:54:25;;;;;;;6.75;1.63;;;21.40;99.90;;;;;;5114785;28;20578;-74
2022/08/27 10:57:18;;;;;;;9.40;1.75;;;21.40;99.90;;;;;;5115262;28;20105;-76
2022/08/27 10:59:49;;;;;;;6.03;1.67;;;21.00;99.90;;;;;;5114978;28;20086;-77
2022/08/27 11:02:27;;;;;;;5.82;1.30;;;21.40;99.90;;;;;;5114947;28;20044;-72
2022/08/27 11:04:58;;;;;;;12.88;2.35;;;21.80;99.90;;;;;;5114618;28;20491;-70
2022/08/27 11:07:31;;;;;;;8.73;2.05;;;21.70;99.90;;;;;;5096506;28;20044;-77
2022/08/27 11:10:23;;;;;;;7.85;1.17;;;22.00;99.90;;;;;;5114819;28;20043;-74
2022/08/27 11:12:52;;;;;;;8.23;1.63;;;21.70;99.90;;;;;;5114183;28;20522;-74
2022/08/27 11:15:25;;;;;;;5.93;1.25;;;21.30;99.90;;;;;;5115331;28;20050;-74
2022/08/27 11:18:07;;;;;;;6.03;1.35;;;21.20;99.90;;;;;;5114955;28;20047;-74
2022/08/27 11:20:44;;;;;;;7.88;1.48;;;21.40;99.90;;;;;;5115071;28;20043;-75
2022/08/27 11:23:23;;;;;;;3.25;0.93;;;20.90;99.90;;;;;;5114669;28;20115;-76
2022/08/27 11:25:51;;;;;;;5.07;1.27;;;20.90;99.90;;;;;;5114317;28;20472;-77
2022/08/27 11:28:21;;;;;;;6.38;1.50;;;21.30;99.90;;;;;;5114242;28;20044;-72
2022/08/27 11:30:47;;;;;;;9.40;1.75;;;21.00;99.90;;;;;;5114377;28;20059;-73
2022/08/27 11:33:34;;;;;;;6.75;1.10;;;21.20;99.90;;;;;;5114268;28;20056;-70
2022/08/27 11:36:27;;;;;;;9.52;3.00;;;21.00;99.90;;;;;;5114344;28;20057;-72
2022/08/27 11:39:30;;;;;;;6.18;1.23;;;21.20;99.90;;;;;;5114123;28;20100;-73
2022/08/27 11:42:14;;;;;;;5.20;1.20;;;21.00;99.90;;;;;;5113829;28;20077;-75
2022/08/27 11:44:45;;;;;;;7.65;1.77;;;21.10;99.90;;;;;;5114037;28;20507;-72
2022/08/27 11:47:18;;;;;;;4.50;1.20;;;21.30;99.90;;;;;;5114005;28;20083;-74
2022/08/27 11:49:48;;;;;;;8.68;2.30;;;21.30;99.90;;;;;;5095659;28;20052;-71
2022/08/27 11:52:27;;;;;;;5.70;1.40;;;21.30;99.90;;;;;;5113898;28;20430;-71
2022/08/27 11:55:19;;;;;;;7.00;1.50;;;21.90;99.90;;;;;;5113904;28;20122;-71
2022/08/27 11:58:00;;;;;;;4.00;1.13;;;21.40;99.90;;;;;;5113576;28;20491;-72
2022/08/27 12:00:26;;;;;;;6.85;1.35;;;21.50;99.90;;;;;;5113855;28;20426;-72
2022/08/27 12:03:20;;;;;;;2.53;0.90;;;21.80;99.90;;;;;;5113792;28;20039;-71
2022/08/27 12:05:54;;;;;;;4.82;1.27;;;22.00;99.90;;;;;;5099869;28;20048;-73
2022/08/27 12:08:22;;;;;;;9.57;1.52;;;22.10;99.90;;;;;;5095542;28;20472;-73
2022/08/27 12:11:05;;;;;;;21.08;7.88;;;21.90;99.90;;;;;;5113235;28;20113;-73
2022/08/27 12:14:08;;;;;;;14.52;5.88;;;22.30;99.90;;;;;;5112922;28;20047;-73
2022/08/27 12:17:07;;;;;;;4.22;1.25;;;22.50;99.90;;;;;;5113341;28;20047;-76
2022/08/27 12:20:11;;;;;;;7.15;1.70;;;22.00;99.90;;;;;;5113402;28;20044;-76
2022/08/27 12:25:59;;;;;;;7.28;1.90;;;21.90;99.90;;;;;;5112944;28;20066;-72
2022/08/27 12:28:26;;;;;;;4.95;1.52;;;21.70;99.90;;;;;;5113242;28;20051;-71
2022/08/27 12:30:53;;;;;;;5.70;1.60;;;21.40;99.90;;;;;;5113107;28;20055;-72
2022/08/27 12:33:57;;;;;;;7.18;1.60;;;21.10;99.90;;;;;;5094875;28;20044;-71
2022/08/27 12:36:26;;;;;;;4.38;1.50;;;21.20;99.90;;;;;;5010185;28;20473;-71
2022/08/27 12:38:58;;;;;;;4.60;1.83;;;21.30;99.90;;;;;;5095539;28;20059;-71
2022/08/27 12:41:26;;;;;;;9.32;1.77;;;21.50;99.90;;;;;;5112939;28;20051;-73
2022/08/27 12:44:15;;;;;;;5.70;1.33;;;21.60;99.90;;;;;;5094879;28;20377;-70
2022/08/27 12:47:00;;;;;;;7.35;1.63;;;21.70;99.90;;;;;;5112933;28;20047;-71
2022/08/27 12:49:32;;;;;;;5.25;1.65;;;22.00;99.90;;;;;;5113011;28;20467;-71
2022/08/27 12:52:12;;;;;;;5.20;1.58;;;22.10;99.90;;;;;;5112595;28;20399;-72
2022/08/27 12:55:03;;;;;;;4.97;1.50;;;22.10;99.90;;;;;;5112574;28;20096;-73
2022/08/27 12:57:48;;;;;;;8.10;2.17;;;22.10;99.90;;;;;;5112702;28;20053;-70
2022/08/27 13:00:19;;;;;;;4.85;1.50;;;22.20;99.90;;;;;;5094725;28;20099;-72
2022/08/27 13:03:02;;;;;;;4.28;1.90;;;22.30;99.90;;;;;;5094463;28;20047;-72
2022/08/27 13:05:46;;;;;;;5.53;1.77;;;22.30;99.90;;;;;;5112770;28;20136;-68
2022/08/27 13:08:31;;;;;;;5.18;1.52;;;22.70;99.90;;;;;;5112508;28;20054;-74
2022/08/27 13:11:17;;;;;;;7.65;1.73;;;22.50;99.90;;;;;;5112706;28;20039;-72
2022/08/27 13:13:43;;;;;;;5.20;1.55;;;22.40;99.90;;;;;;5112753;28;20039;-69
2022/08/27 13:16:09;;;;;;;9.13;1.95;;;21.70;99.90;;;;;;5112848;28;20099;-71
2022/08/27 13:18:35;;;;;;;7.70;1.67;;;21.50;99.90;;;;;;5112581;28;20058;-75
2022/08/27 13:21:14;;;;;;;7.53;1.50;;;21.50;99.90;;;;;;5112520;28;20478;-71
2022/08/27 13:23:46;;;;;;;11.13;1.85;;;21.50;99.90;;;;;;5112175;28;20542;-72